Weymouth, United Kingdom
Current Conditions -  °F | °C
As of 11:50 PM on Sunday 23 Nov 2014 (Local Time) from EGDY Reporting Station
Moderate Fog Moderate Fog  
Wind Chill: 34°   Ceiling: Unl
Heat Index: 34°   Visibility: 0.31mi
Dew Point: 32°   Wind: 1mph
Humidity: 93%   Direction: 100°E
Pressure: 30.21"   Gusts: NA
Location:  50.61°N, 2.45°W
Report Text: EGDY 232350Z AUTO 10001KT 0500 FG NCD 01/00 Q1023
Loading
Personal Weather Stations






























Interactive Weather Map New forecast layout! Learn more

10-Day Weather Forecast

Advertisements
Track Severe Weather on mobile